sensor_id;sensor_type;location;lat;lon;timestamp;pressure;altitude;pressure_sealevel;temperature;humidity
31585;BME280;18191;51.288;12.390;2023-04-23T00:04:52;48945.19;;;-144.47;74.93
31585;BME280;18191;51.288;12.390;2023-04-23T00:09:43;48961.09;;;-144.47;75.71
31585;BME280;18191;51.288;12.390;2023-04-23T00:14:33;48984.97;;;-144.47;75.85
31585;BME280;18191;51.288;12.390;2023-04-23T00:19:24;48925.28;;;-144.47;75.88
31585;BME280;18191;51.288;12.390;2023-04-23T00:24:14;49010.81;;;-144.47;75.92
31585;BME280;18191;51.288;12.390;2023-04-23T00:29:04;48965.06;;;-144.47;75.91
31585;BME280;18191;51.288;12.390;2023-04-23T00:33:54;48965.06;;;-144.47;76.47
31585;BME280;18191;51.288;12.390;2023-04-23T00:38:45;48933.25;;;-144.47;75.59
31585;BME280;18191;51.288;12.390;2023-04-23T00:43:35;48959.09;;;-144.47;75.33
31585;BME280;18191;51.288;12.390;2023-04-23T00:48:25;48937.22;;;-144.47;76.06
31585;BME280;18191;51.288;12.390;2023-04-23T00:53:16;48931.25;;;-144.47;75.97
31585;BME280;18191;51.288;12.390;2023-04-23T00:58:06;48988.94;;;-144.47;78.46
31585;BME280;18191;51.288;12.390;2023-04-23T01:02:57;49012.81;;;-144.47;79.25
31585;BME280;18191;51.288;12.390;2023-04-23T01:07:48;48925.28;;;-144.47;80.70
31585;BME280;18191;51.288;12.390;2023-04-23T01:12:38;48965.06;;;-144.47;81.10
31585;BME280;18191;51.288;12.390;2023-04-23T01:17:28;48979.00;;;-144.47;81.63
31585;BME280;18191;51.288;12.390;2023-04-23T01:22:19;48973.03;;;-144.47;83.53
31585;BME280;18191;51.288;12.390;2023-04-23T01:27:09;48959.09;;;-144.47;83.72
31585;BME280;18191;51.288;12.390;2023-04-23T01:32:00;48963.09;;;-144.47;83.38
31585;BME280;18191;51.288;12.390;2023-04-23T01:36:51;48977.00;;;-144.47;84.70
31585;BME280;18191;51.288;12.390;2023-04-23T01:41:43;48953.13;;;-144.47;84.53
31585;BME280;18191;51.288;12.390;2023-04-23T01:46:33;48949.16;;;-144.47;84.94
31585;BME280;18191;51.288;12.390;2023-04-23T01:51:24;48988.94;;;-144.47;86.28
31585;BME280;18191;51.288;12.390;2023-04-23T01:56:15;48969.06;;;-144.47;85.84
31585;BME280;18191;51.288;12.390;2023-04-23T02:01:05;48961.09;;;-144.47;85.22
31585;BME280;18191;51.288;12.390;2023-04-23T02:05:55;48961.09;;;-144.47;85.60
31585;BME280;18191;51.288;12.390;2023-04-23T02:10:47;48973.03;;;-144.47;85.22
31585;BME280;18191;51.288;12.390;2023-04-23T02:15:37;48973.03;;;-144.47;85.91
31585;BME280;18191;51.288;12.390;2023-04-23T02:20:28;48949.16;;;-144.47;86.30
31585;BME280;18191;51.288;12.390;2023-04-23T02:25:18;48935.25;;;-144.47;87.18
31585;BME280;18191;51.288;12.390;2023-04-23T02:30:10;48967.06;;;-144.47;87.73
31585;BME280;18191;51.288;12.390;2023-04-23T02:35:01;48979.00;;;-144.47;86.72
31585;BME280;18191;51.288;12.390;2023-04-23T02:39:52;48945.19;;;-144.47;85.37
31585;BME280;18191;51.288;12.390;2023-04-23T02:44:43;48981.00;;;-144.47;85.14
31585;BME280;18191;51.288;12.390;2023-04-23T02:49:34;48935.25;;;-144.47;84.63
31585;BME280;18191;51.288;12.390;2023-04-23T02:54:24;48955.13;;;-144.47;85.77
31585;BME280;18191;51.288;12.390;2023-04-23T02:59:14;48963.09;;;-144.47;85.26
31585;BME280;18191;51.288;12.390;2023-04-23T03:04:04;48933.25;;;-144.47;86.72
31585;BME280;18191;51.288;12.390;2023-04-23T03:08:54;48965.06;;;-144.47;87.44
31585;BME280;18191;51.288;12.390;2023-04-23T03:13:45;48949.16;;;-144.47;86.42
31585;BME280;18191;51.288;12.390;2023-04-23T03:18:35;48971.03;;;-144.47;86.47
31585;BME280;18191;51.288;12.390;2023-04-23T03:23:25;48945.19;;;-144.47;86.03
31585;BME280;18191;51.288;12.390;2023-04-23T03:28:15;49016.78;;;-144.47;86.27
31585;BME280;18191;51.288;12.390;2023-04-23T03:33:05;48927.28;;;-144.47;87.15
31585;BME280;18191;51.288;12.390;2023-04-23T03:37:56;49018.78;;;-144.47;86.70
31585;BME280;18191;51.288;12.390;2023-04-23T03:42:46;48957.13;;;-144.47;85.86
31585;BME280;18191;51.288;12.390;2023-04-23T03:47:36;48953.13;;;-144.47;85.32
31585;BME280;18191;51.288;12.390;2023-04-23T03:52:26;48957.13;;;-144.47;85.28
31585;BME280;18191;51.288;12.390;2023-04-23T03:57:16;48965.06;;;-144.47;85.19
31585;BME280;18191;51.288;12.390;2023-04-23T04:02:07;48917.34;;;-144.47;85.32
31585;BME280;18191;51.288;12.390;2023-04-23T04:06:57;48927.28;;;-144.47;84.71
31585;BME280;18191;51.288;12.390;2023-04-23T04:11:49;48945.19;;;-144.47;84.54
31585;BME280;18191;51.288;12.390;2023-04-23T04:16:39;48967.06;;;-144.47;84.36
31585;BME280;18191;51.288;12.390;2023-04-23T04:21:29;48969.06;;;-144.47;83.64
31585;BME280;18191;51.288;12.390;2023-04-23T04:26:21;48951.16;;;-144.47;83.85
31585;BME280;18191;51.288;12.390;2023-04-23T04:31:12;48965.06;;;-144.47;84.30
31585;BME280;18191;51.288;12.390;2023-04-23T04:36:03;48941.19;;;-144.47;84.86
31585;BME280;18191;51.288;12.390;2023-04-23T04:40:54;48953.13;;;-144.47;85.19
31585;BME280;18191;51.288;12.390;2023-04-23T04:45:44;48961.09;;;-144.47;84.87
31585;BME280;18191;51.288;12.390;2023-04-23T04:50:34;48953.13;;;-144.47;85.34
31585;BME280;18191;51.288;12.390;2023-04-23T04:55:24;48943.19;;;-144.47;85.94
31585;BME280;18191;51.288;12.390;2023-04-23T05:00:23;48917.34;;;-144.47;86.38
31585;BME280;18191;51.288;12.390;2023-04-23T05:05:14;48988.94;;;-144.47;85.03
31585;BME280;18191;51.288;12.390;2023-04-23T05:10:04;48937.22;;;-144.47;84.04
31585;BME280;18191;51.288;12.390;2023-04-23T05:14:55;48953.13;;;-144.47;83.88
31585;BME280;18191;51.288;12.390;2023-04-23T05:19:45;48969.06;;;-144.47;84.03
31585;BME280;18191;51.288;12.390;2023-04-23T05:24:35;48957.13;;;-144.47;84.18
31585;BME280;18191;51.288;12.390;2023-04-23T05:29:26;48961.09;;;-144.47;84.95
31585;BME280;18191;51.288;12.390;2023-04-23T05:34:16;48963.09;;;-144.47;84.76
31585;BME280;18191;51.288;12.390;2023-04-23T05:39:06;48973.03;;;-144.47;84.43
31585;BME280;18191;51.288;12.390;2023-04-23T05:43:56;48957.13;;;-144.47;83.87
31585;BME280;18191;51.288;12.390;2023-04-23T05:48:46;48957.13;;;-144.47;82.21
31585;BME280;18191;51.288;12.390;2023-04-23T05:53:36;48919.31;;;-144.47;79.74
31585;BME280;18191;51.288;12.390;2023-04-23T05:58:27;48913.34;;;-144.47;79.03
31585;BME280;18191;51.288;12.390;2023-04-23T06:03:17;48941.19;;;-144.47;76.74
31585;BME280;18191;51.288;12.390;2023-04-23T06:08:08;48969.06;;;-144.47;76.61
31585;BME280;18191;51.288;12.390;2023-04-23T06:12:58;48988.94;;;-144.47;76.05
31585;BME280;18191;51.288;12.390;2023-04-23T06:17:48;48986.97;;;-144.47;76.48
31585;BME280;18191;51.288;12.390;2023-04-23T06:22:38;48959.09;;;-144.47;74.79
31585;BME280;18191;51.288;12.390;2023-04-23T06:27:28;48951.16;;;-144.47;72.96
31585;BME280;18191;51.288;12.390;2023-04-23T06:32:19;48961.09;;;-144.47;72.96
31585;BME280;18191;51.288;12.390;2023-04-23T06:37:09;48967.06;;;-144.47;72.33
31585;BME280;18191;51.288;12.390;2023-04-23T06:41:59;48957.13;;;-144.47;72.90
31585;BME280;18191;51.288;12.390;2023-04-23T06:46:50;48909.38;;;-144.47;73.35
31585;BME280;18191;51.288;12.390;2023-04-23T06:51:40;48933.25;;;-144.47;72.50
31585;BME280;18191;51.288;12.390;2023-04-23T06:56:31;48957.13;;;-144.47;73.03
31585;BME280;18191;51.288;12.390;2023-04-23T07:01:21;48967.06;;;-144.47;71.80
31585;BME280;18191;51.288;12.390;2023-04-23T07:06:11;48969.06;;;-144.47;73.37
31585;BME280;18191;51.288;12.390;2023-04-23T07:11:02;48977.00;;;-144.47;73.66
31585;BME280;18191;51.288;12.390;2023-04-23T07:15:52;48967.06;;;-144.47;74.26
31585;BME280;18191;51.288;12.390;2023-04-23T07:20:42;48988.94;;;-144.47;71.96
31585;BME280;18191;51.288;12.390;2023-04-23T07:25:32;48967.06;;;-144.47;70.57
31585;BME280;18191;51.288;12.390;2023-04-23T07:30:23;48981.00;;;-144.47;75.67
31585;BME280;18191;51.288;12.390;2023-04-23T07:35:13;48933.25;;;-144.47;76.26
31585;BME280;18191;51.288;12.390;2023-04-23T07:40:04;48957.13;;;-144.47;77.22
31585;BME280;18191;51.288;12.390;2023-04-23T07:44:54;48943.19;;;-144.47;77.94
31585;BME280;18191;51.288;12.390;2023-04-23T07:49:44;48992.94;;;-144.47;79.18
31585;BME280;18191;51.288;12.390;2023-04-23T07:54:35;48977.00;;;-144.47;81.87
31585;BME280;18191;51.288;12.390;2023-04-23T07:59:25;48913.34;;;-144.47;79.94
31585;BME280;18191;51.288;12.390;2023-04-23T08:04:15;48981.00;;;-144.47;81.20
31585;BME280;18191;51.288;12.390;2023-04-23T08:09:05;48973.03;;;-144.47;78.12
31585;BME280;18191;51.288;12.390;2023-04-23T08:13:55;48961.09;;;-144.47;77.86
31585;BME280;18191;51.288;12.390;2023-04-23T08:18:46;48979.00;;;-144.47;76.78
31585;BME280;18191;51.288;12.390;2023-04-23T08:23:36;48957.13;;;-144.47;77.25
31585;BME280;18191;51.288;12.390;2023-04-23T08:28:26;48961.09;;;-144.47;79.63
31585;BME280;18191;51.288;12.390;2023-04-23T08:33:16;48957.13;;;-144.47;81.46
31585;BME280;18191;51.288;12.390;2023-04-23T08:38:07;48981.00;;;-144.47;82.78
31585;BME280;18191;51.288;12.390;2023-04-23T08:43:01;48988.94;;;-144.47;82.17
31585;BME280;18191;51.288;12.390;2023-04-23T08:47:52;49012.81;;;-144.47;80.72
31585;BME280;18191;51.288;12.390;2023-04-23T08:52:46;48965.06;;;-144.47;76.30
31585;BME280;18191;51.288;12.390;2023-04-23T08:57:37;48982.97;;;-144.47;74.53
31585;BME280;18191;51.288;12.390;2023-04-23T09:02:28;48953.13;;;-144.47;73.67
31585;BME280;18191;51.288;12.390;2023-04-23T09:07:18;48969.06;;;-144.47;68.50
31585;BME280;18191;51.288;12.390;2023-04-23T09:12:09;48977.00;;;-144.47;63.66
31585;BME280;18191;51.288;12.390;2023-04-23T09:16:59;48969.06;;;-144.47;66.43
31585;BME280;18191;51.288;12.390;2023-04-23T09:21:50;48984.97;;;-144.47;62.93
31585;BME280;18191;51.288;12.390;2023-04-23T09:26:44;48945.19;;;-144.47;56.81
31585;BME280;18191;51.288;12.390;2023-04-23T09:31:35;48947.16;;;-144.47;54.34
31585;BME280;18191;51.288;12.390;2023-04-23T09:36:25;48925.28;;;-144.47;54.32
31585;BME280;18191;51.288;12.390;2023-04-23T09:41:23;48951.16;;;-144.47;54.59
31585;BME280;18191;51.288;12.390;2023-04-23T09:46:14;48937.22;;;-144.47;54.03
31585;BME280;18191;51.288;12.390;2023-04-23T09:51:04;48923.31;;;-144.47;53.87
31585;BME280;18191;51.288;12.390;2023-04-23T09:55:55;48941.19;;;-144.47;50.37
31585;BME280;18191;51.288;12.390;2023-04-23T10:00:45;48949.16;;;-144.47;48.90
31585;BME280;18191;51.288;12.390;2023-04-23T10:05:39;48961.09;;;-144.47;49.41
31585;BME280;18191;51.288;12.390;2023-04-23T10:10:30;48937.22;;;-144.47;45.19
31585;BME280;18191;51.288;12.390;2023-04-23T10:15:20;48937.22;;;-144.47;44.92
31585;BME280;18191;51.288;12.390;2023-04-23T10:20:12;48957.13;;;-144.47;43.07
31585;BME280;18191;51.288;12.390;2023-04-23T10:25:11;48933.25;;;-144.47;44.07
31585;BME280;18191;51.288;12.390;2023-04-23T10:30:01;48943.19;;;-144.47;42.62
31585;BME280;18191;51.288;12.390;2023-04-23T10:34:53;48913.34;;;-144.47;40.95
31585;BME280;18191;51.288;12.390;2023-04-23T10:39:45;48927.28;;;-144.47;41.84
31585;BME280;18191;51.288;12.390;2023-04-23T10:44:37;48933.25;;;-144.47;40.15
31585;BME280;18191;51.288;12.390;2023-04-23T10:49:33;48921.31;;;-144.47;39.99
31585;BME280;18191;51.288;12.390;2023-04-23T10:54:27;48917.34;;;-144.47;38.81
31585;BME280;18191;51.288;12.390;2023-04-23T10:59:18;48885.50;;;-144.47;38.84
31585;BME280;18191;51.288;12.390;2023-04-23T11:04:19;48929.28;;;-144.47;37.88
31585;BME280;18191;51.288;12.390;2023-04-23T11:09:26;48933.25;;;-144.47;39.31
31585;BME280;18191;51.288;12.390;2023-04-23T11:14:16;48965.06;;;-144.47;40.58
31585;BME280;18191;51.288;12.390;2023-04-23T11:19:07;48909.38;;;-144.47;40.32
31585;BME280;18191;51.288;12.390;2023-04-23T11:24:00;48915.34;;;-144.47;38.13
31585;BME280;18191;51.288;12.390;2023-04-23T11:28:51;48921.31;;;-144.47;38.92
31585;BME280;18191;51.288;12.390;2023-04-23T11:33:41;48945.19;;;-144.47;40.45
31585;BME280;18191;51.288;12.390;2023-04-23T11:38:32;48931.25;;;-144.47;38.49
31585;BME280;18191;51.288;12.390;2023-04-23T11:43:25;48931.25;;;-144.47;38.76
31585;BME280;18191;51.288;12.390;2023-04-23T11:48:18;48917.34;;;-144.47;37.60
31585;BME280;18191;51.288;12.390;2023-04-23T11:53:09;48953.13;;;-144.47;35.96
31585;BME280;18191;51.288;12.390;2023-04-23T11:58:00;48917.34;;;-144.47;36.04
31585;BME280;18191;51.288;12.390;2023-04-23T12:07:46;48917.34;;;-144.47;35.17
31585;BME280;18191;51.288;12.390;2023-04-23T12:12:36;48905.41;;;-144.47;36.68
31585;BME280;18191;51.288;12.390;2023-04-23T12:17:28;48931.25;;;-144.47;37.46
31585;BME280;18191;51.288;12.390;2023-04-23T12:22:18;48929.28;;;-144.47;36.03
31585;BME280;18191;51.288;12.390;2023-04-23T12:27:15;48925.28;;;-144.47;34.66
31585;BME280;18191;51.288;12.390;2023-04-23T12:32:09;48917.34;;;-144.47;35.44
31585;BME280;18191;51.288;12.390;2023-04-23T12:37:00;48895.44;;;-144.47;33.83
31585;BME280;18191;51.288;12.390;2023-04-23T12:41:56;48893.47;;;-144.47;35.59
31585;BME280;18191;51.288;12.390;2023-04-23T12:46:52;48889.50;;;-144.47;33.95
31585;BME280;18191;51.288;12.390;2023-04-23T12:51:46;48949.16;;;-144.47;33.77
31585;BME280;18191;51.288;12.390;2023-04-23T12:56:37;48923.31;;;-144.47;34.95
31585;BME280;18191;51.288;12.390;2023-04-23T13:01:27;48891.47;;;-144.47;33.98
31585;BME280;18191;51.288;12.390;2023-04-23T13:06:18;48939.22;;;-144.47;33.86
31585;BME280;18191;51.288;12.390;2023-04-23T13:11:08;48897.44;;;-144.47;32.42
31585;BME280;18191;51.288;12.390;2023-04-23T13:15:58;48897.44;;;-144.47;33.38
31585;BME280;18191;51.288;12.390;2023-04-23T13:20:48;48889.50;;;-144.47;31.86
31585;BME280;18191;51.288;12.390;2023-04-23T13:25:38;48885.50;;;-144.47;33.90
31585;BME280;18191;51.288;12.390;2023-04-23T13:30:29;48917.34;;;-144.47;32.14
31585;BME280;18191;51.288;12.390;2023-04-23T13:35:19;48883.53;;;-144.47;33.59
31585;BME280;18191;51.288;12.390;2023-04-23T13:40:09;48879.53;;;-144.47;34.54
31585;BME280;18191;51.288;12.390;2023-04-23T13:45:00;48937.22;;;-144.47;32.71
31585;BME280;18191;51.288;12.390;2023-04-23T13:49:51;48945.19;;;-144.47;32.35
31585;BME280;18191;51.288;12.390;2023-04-23T13:54:41;48909.38;;;-144.47;32.97
31585;BME280;18191;51.288;12.390;2023-04-23T13:59:31;48921.31;;;-144.47;33.77
31585;BME280;18191;51.288;12.390;2023-04-23T14:04:21;48945.19;;;-144.47;33.35
31585;BME280;18191;51.288;12.390;2023-04-23T14:09:13;48881.53;;;-144.47;31.76
31585;BME280;18191;51.288;12.390;2023-04-23T14:14:03;48857.66;;;-144.47;32.88
31585;BME280;18191;51.288;12.390;2023-04-23T14:18:53;48953.13;;;-144.47;34.02
31585;BME280;18191;51.288;12.390;2023-04-23T14:28:40;48865.63;;;-144.47;33.87
31585;BME280;18191;51.288;12.390;2023-04-23T14:33:33;48901.41;;;-144.47;33.61
31585;BME280;18191;51.288;12.390;2023-04-23T14:38:23;48849.69;;;-144.47;33.45
31585;BME280;18191;51.288;12.390;2023-04-23T14:43:15;48897.44;;;-144.47;32.02
31585;BME280;18191;51.288;12.390;2023-04-23T14:48:05;48905.41;;;-144.47;31.79
31585;BME280;18191;51.288;12.390;2023-04-23T14:52:56;48873.56;;;-144.47;32.81
31585;BME280;18191;51.288;12.390;2023-04-23T14:57:47;48883.53;;;-144.47;32.70
31585;BME280;18191;51.288;12.390;2023-04-23T15:02:38;48885.50;;;-144.47;33.29
31585;BME280;18191;51.288;12.390;2023-04-23T15:07:29;48921.31;;;-144.47;33.72
31585;BME280;18191;51.288;12.390;2023-04-23T15:17:30;48915.34;;;-144.47;34.55
31585;BME280;18191;51.288;12.390;2023-04-23T15:22:21;48863.63;;;-144.47;34.03
31585;BME280;18191;51.288;12.390;2023-04-23T15:27:11;48901.41;;;-144.47;34.00
31585;BME280;18191;51.288;12.390;2023-04-23T15:32:03;48885.50;;;-144.47;33.42
31585;BME280;18191;51.288;12.390;2023-04-23T15:36:54;48903.41;;;-144.47;32.60
31585;BME280;18191;51.288;12.390;2023-04-23T15:41:47;48905.41;;;-144.47;33.24
31585;BME280;18191;51.288;12.390;2023-04-23T15:46:37;48867.59;;;-144.47;32.77
31585;BME280;18191;51.288;12.390;2023-04-23T15:51:28;48881.53;;;-144.47;34.08
31585;BME280;18191;51.288;12.390;2023-04-23T15:56:19;48929.28;;;-144.47;34.19
31585;BME280;18191;51.288;12.390;2023-04-23T16:01:09;48941.19;;;-144.47;35.30
31585;BME280;18191;51.288;12.390;2023-04-23T16:06:01;48913.34;;;-144.47;34.67
31585;BME280;18191;51.288;12.390;2023-04-23T16:10:53;48881.53;;;-144.47;34.09
31585;BME280;18191;51.288;12.390;2023-04-23T16:15:43;48909.38;;;-144.47;33.14
31585;BME280;18191;51.288;12.390;2023-04-23T16:20:34;48917.34;;;-144.47;34.90
31585;BME280;18191;51.288;12.390;2023-04-23T16:25:25;48929.28;;;-144.47;33.88
31585;BME280;18191;51.288;12.390;2023-04-23T16:30:16;48921.31;;;-144.47;34.62
31585;BME280;18191;51.288;12.390;2023-04-23T16:35:08;48927.28;;;-144.47;33.92
31585;BME280;18191;51.288;12.390;2023-04-23T16:39:59;48913.34;;;-144.47;35.35
31585;BME280;18191;51.288;12.390;2023-04-23T16:44:51;48903.41;;;-144.47;35.27
31585;BME280;18191;51.288;12.390;2023-04-23T16:49:41;48939.22;;;-144.47;35.67
31585;BME280;18191;51.288;12.390;2023-04-23T16:54:31;48919.31;;;-144.47;36.25
31585;BME280;18191;51.288;12.390;2023-04-23T16:59:23;48901.41;;;-144.47;36.67
31585;BME280;18191;51.288;12.390;2023-04-23T17:04:13;48949.16;;;-144.47;37.77
31585;BME280;18191;51.288;12.390;2023-04-23T17:09:04;48937.22;;;-144.47;37.31
31585;BME280;18191;51.288;12.390;2023-04-23T17:13:57;48933.25;;;-144.47;38.09
31585;BME280;18191;51.288;12.390;2023-04-23T17:18:47;48909.38;;;-144.47;38.35
31585;BME280;18191;51.288;12.390;2023-04-23T17:23:37;48933.25;;;-144.47;38.38
31585;BME280;18191;51.288;12.390;2023-04-23T17:28:28;48921.31;;;-144.47;38.69
31585;BME280;18191;51.288;12.390;2023-04-23T17:33:18;48925.28;;;-144.47;39.31
31585;BME280;18191;51.288;12.390;2023-04-23T17:38:08;48965.06;;;-144.47;40.47
31585;BME280;18191;51.288;12.390;2023-04-23T17:42:59;48933.25;;;-144.47;40.65
31585;BME280;18191;51.288;12.390;2023-04-23T17:47:49;48905.41;;;-144.47;42.32
31585;BME280;18191;51.288;12.390;2023-04-23T17:52:39;48931.25;;;-144.47;43.42
31585;BME280;18191;51.288;12.390;2023-04-23T17:57:30;48925.28;;;-144.47;42.83
31585;BME280;18191;51.288;12.390;2023-04-23T18:02:20;48921.31;;;-144.47;42.54
31585;BME280;18191;51.288;12.390;2023-04-23T18:07:10;48941.19;;;-144.47;44.46
31585;BME280;18191;51.288;12.390;2023-04-23T18:12:00;48957.13;;;-144.47;45.84
31585;BME280;18191;51.288;12.390;2023-04-23T18:16:52;48953.13;;;-144.47;45.83
31585;BME280;18191;51.288;12.390;2023-04-23T18:21:43;48933.25;;;-144.47;46.34
31585;BME280;18191;51.288;12.390;2023-04-23T18:26:53;48909.38;;;-144.47;47.49
31585;BME280;18191;51.288;12.390;2023-04-23T18:31:43;48959.09;;;-144.47;48.71
31585;BME280;18191;51.288;12.390;2023-04-23T18:36:36;48911.38;;;-144.47;48.13
31585;BME280;18191;51.288;12.390;2023-04-23T18:41:30;48925.28;;;-144.47;48.61
31585;BME280;18191;51.288;12.390;2023-04-23T18:46:20;48899.44;;;-144.47;48.87
31585;BME280;18191;51.288;12.390;2023-04-23T18:51:17;48929.28;;;-144.47;50.73
31585;BME280;18191;51.288;12.390;2023-04-23T18:56:08;48957.13;;;-144.47;51.38
31585;BME280;18191;51.288;12.390;2023-04-23T19:00:58;48969.06;;;-144.47;52.16
31585;BME280;18191;51.288;12.390;2023-04-23T19:05:48;48909.38;;;-144.47;52.82
31585;BME280;18191;51.288;12.390;2023-04-23T19:10:38;48927.28;;;-144.47;53.83
31585;BME280;18191;51.288;12.390;2023-04-23T19:15:29;48977.00;;;-144.47;54.78
31585;BME280;18191;51.288;12.390;2023-04-23T19:20:19;48943.19;;;-144.47;55.26
31585;BME280;18191;51.288;12.390;2023-04-23T19:25:10;48937.22;;;-144.47;56.14
31585;BME280;18191;51.288;12.390;2023-04-23T19:30:00;48929.28;;;-144.47;56.80
31585;BME280;18191;51.288;12.390;2023-04-23T19:34:50;48933.25;;;-144.47;57.79
31585;BME280;18191;51.288;12.390;2023-04-23T19:39:41;48957.13;;;-144.47;58.83
31585;BME280;18191;51.288;12.390;2023-04-23T19:44:31;48923.31;;;-144.47;59.47
31585;BME280;18191;51.288;12.390;2023-04-23T19:49:21;48957.13;;;-144.47;61.04
31585;BME280;18191;51.288;12.390;2023-04-23T19:54:11;48973.03;;;-144.47;61.31
31585;BME280;18191;51.288;12.390;2023-04-23T19:59:01;48965.06;;;-144.47;60.98
31585;BME280;18191;51.288;12.390;2023-04-23T20:03:52;48984.97;;;-144.47;62.38
31585;BME280;18191;51.288;12.390;2023-04-23T20:08:42;48913.34;;;-144.47;63.08
31585;BME280;18191;51.288;12.390;2023-04-23T20:13:55;48925.28;;;-144.47;63.02
31585;BME280;18191;51.288;12.390;2023-04-23T20:18:46;48977.00;;;-144.47;63.25
31585;BME280;18191;51.288;12.390;2023-04-23T20:23:37;48937.22;;;-144.47;65.08
31585;BME280;18191;51.288;12.390;2023-04-23T20:28:28;48933.25;;;-144.47;65.70
31585;BME280;18191;51.288;12.390;2023-04-23T20:33:19;48945.19;;;-144.47;66.27
31585;BME280;18191;51.288;12.390;2023-04-23T20:38:09;48981.00;;;-144.47;66.55
31585;BME280;18191;51.288;12.390;2023-04-23T20:43:00;48937.22;;;-144.47;67.56
31585;BME280;18191;51.288;12.390;2023-04-23T20:47:51;48941.19;;;-144.47;68.27
31585;BME280;18191;51.288;12.390;2023-04-23T20:52:42;48945.19;;;-144.47;69.08
31585;BME280;18191;51.288;12.390;2023-04-23T20:57:32;48893.47;;;-144.47;69.70
31585;BME280;18191;51.288;12.390;2023-04-23T21:02:22;48949.16;;;-144.47;69.59
31585;BME280;18191;51.288;12.390;2023-04-23T21:07:13;48949.16;;;-144.47;70.06
31585;BME280;18191;51.288;12.390;2023-04-23T21:12:03;48965.06;;;-144.47;70.90
31585;BME280;18191;51.288;12.390;2023-04-23T21:16:53;48969.06;;;-144.47;71.26
31585;BME280;18191;51.288;12.390;2023-04-23T21:21:45;48957.13;;;-144.47;72.26
31585;BME280;18191;51.288;12.390;2023-04-23T21:26:35;48981.00;;;-144.47;72.62
31585;BME280;18191;51.288;12.390;2023-04-23T21:36:47;48965.06;;;-144.47;73.94
31585;BME280;18191;51.288;12.390;2023-04-23T21:41:37;48917.34;;;-144.47;74.69
31585;BME280;18191;51.288;12.390;2023-04-23T21:46:28;48973.03;;;-144.47;74.98
31585;BME280;18191;51.288;12.390;2023-04-23T21:51:20;48951.16;;;-144.47;74.64
31585;BME280;18191;51.288;12.390;2023-04-23T21:56:10;48969.06;;;-144.47;74.31
31585;BME280;18191;51.288;12.390;2023-04-23T22:01:00;48973.03;;;-144.47;74.66
31585;BME280;18191;51.288;12.390;2023-04-23T22:05:51;48921.31;;;-144.47;75.31
31585;BME280;18191;51.288;12.390;2023-04-23T22:10:41;48977.00;;;-144.47;75.64
31585;BME280;18191;51.288;12.390;2023-04-23T22:15:32;48931.25;;;-144.47;75.11
31585;BME280;18191;51.288;12.390;2023-04-23T22:20:22;48977.00;;;-144.47;75.50
31585;BME280;18191;51.288;12.390;2023-04-23T22:25:12;48957.13;;;-144.47;75.31
31585;BME280;18191;51.288;12.390;2023-04-23T22:30:06;48931.25;;;-144.47;75.95
31585;BME280;18191;51.288;12.390;2023-04-23T22:34:57;48977.00;;;-144.47;75.71
31585;BME280;18191;51.288;12.390;2023-04-23T22:39:47;48949.16;;;-144.47;75.28
31585;BME280;18191;51.288;12.390;2023-04-23T22:44:39;48937.22;;;-144.47;75.70
31585;BME280;18191;51.288;12.390;2023-04-23T22:49:29;48945.19;;;-144.47;75.51
31585;BME280;18191;51.288;12.390;2023-04-23T22:54:19;48996.91;;;-144.47;75.29
31585;BME280;18191;51.288;12.390;2023-04-23T22:59:10;48953.13;;;-144.47;75.29
31585;BME280;18191;51.288;12.390;2023-04-23T23:04:02;48965.06;;;-144.47;75.42
31585;BME280;18191;51.288;12.390;2023-04-23T23:08:52;48973.03;;;-144.47;75.21
31585;BME280;18191;51.288;12.390;2023-04-23T23:13:42;48959.09;;;-144.47;74.53
31585;BME280;18191;51.288;12.390;2023-04-23T23:18:34;48973.03;;;-144.47;74.79
31585;BME280;18191;51.288;12.390;2023-04-23T23:23:24;48959.09;;;-144.47;75.04
31585;BME280;18191;51.288;12.390;2023-04-23T23:28:15;48941.19;;;-144.47;73.94
31585;BME280;18191;51.288;12.390;2023-04-23T23:33:05;48988.94;;;-144.47;73.91
31585;BME280;18191;51.288;12.390;2023-04-23T23:37:55;49008.84;;;-144.47;74.25
31585;BME280;18191;51.288;12.390;2023-04-23T23:42:45;48986.97;;;-144.47;75.71
31585;BME280;18191;51.288;12.390;2023-04-23T23:47:35;48963.09;;;-144.47;76.86
31585;BME280;18191;51.288;12.390;2023-04-23T23:52:26;48965.06;;;-144.47;79.35
31585;BME280;18191;51.288;12.390;2023-04-23T23:57:16;48957.13;;;-144.47;82.12
